GCRRGCHI

Guest
Details From GCRR - Lanzarote
To GCHI - Hierro
Flight Number -
Tags generated
Created
Modified
Stats Distance 239 nm / 443 km
Max Altitude 22,100 ft / 6,736 m
Waypoints 4
Social Downloads 0
Likes 0
Share VATSIM

Download

Looking for another format? Having issues loading an existing format? Contact us
Advertisement - Login to hide

Notes

Basic altitude profile: - Ascent Rate: 2500ft/min - Ascent Speed: 250kts - Cruise Altitude: 35000ft - Cruise Speed: 420kts - Descent Rate: 1500ft/min - Descent Speed: 250kts Options: - Use NATs: yes - Use PACOTS: yes - Use low airways: yes - Use high airways: yes

Route

GCRR LARYS TFN GCHI

ID Type Via Altitude Latitude Longitude Leg Dist Tot Dist Heading (true) Name
O GCRR APT - 0 ft / 0 m 28.94547˚ -13.60522˚ - 0 nm - Lanzarote
LARYS FIX - 22,100 ft / 6,736 m 28.87183˚ -14.83429˚ 64 nm 64 nm 266° / 266° -
TFN VOR - 20,500 ft / 6,248 m 28.53683˚ -16.26878˚ 78 nm 142 nm 255° / 255° TENERIFE NORTE VOR-DME
O GCHI APT - 0 ft / 0 m 27.81485˚ -17.88705˚ 96 nm 238 nm 244° / 243° Hierro

Altitude Profile

Advertisement - Login to hide

Weather


0- 5 10 15 20 25 30 35+ Temperature / ° C

Clouds and Precipitation
Forecast for 2017-12-15 00:00 UTC. Updated 2 hours ago

Ground ~20,000 ft ~40,000 ft Winds

GCRR

Details ICAO GCRR (ACE)
Name Lanzarote
Region Canary Islands
Timezone Atlantic/Canary (UTC+0.0)
Stats Elevation 0 ft / 0 m (AMSL)
Location 28.945466° -13.605223°
Runways 1
Magnetic Variation 3.976° W

METAR

GCRR 142100Z 02007KT 350V050 9999 FEW040 17/12 Q1025

Decode

TAF

TAF GCRR 142000Z 1421/1521 01011KT 9999 FEW025 TX22/1514Z TN15/1506Z

Decode

Departure Runways

ID Width Length Bearing (true) Bearing (mag) Surface Threshold Offset Overrun Length
03 148 ft / 45 m 7,893 ft / 2,406 m 26.90° 30.88° Asphalt 197 ft / 60 m 197 ft / 60 m
21 148 ft / 45 m 7,893 ft / 2,406 m 206.91° 210.89° Asphalt 197 ft / 60 m 197 ft / 60 m

GCHI

Details ICAO GCHI (VDE)
Name Hierro
Region Canary Islands
Timezone Atlantic/Canary (UTC+0.0)
Stats Elevation 337 ft / 103 m (AMSL)
Location 27.814848° -17.887052°
Runways 1
Magnetic Variation 5.628° W

METAR

GCHI 142100Z AUTO 01014KT 340V050 9999 SCT033/// 19/13 Q1026

Decode

TAF

TAF GCHI 142000Z 1421/1521 02016KT 9999 FEW030 TX22/1514Z TN15/1506Z

Decode

Destination Runways

ID Width Length Bearing (true) Bearing (mag) Surface Threshold Offset Overrun Length
16 98 ft / 30 m 4,110 ft / 1,253 m 152.71° 158.34° Asphalt 0 ft / 0 m 112 ft / 34 m
34 98 ft / 30 m 4,110 ft / 1,253 m 332.71° 338.34° Asphalt 0 ft / 0 m 105 ft / 32 m

Popular Alternatives